Okatie, SC (29909)

2:59 PM EDT on August 27, 2016 (GMT -0400)
Bluffton RHP | | Change Station
Active Advisory: Coastal Hazard Statement

Elev 35 ft 32.27 °N, 80.89 °W | Updated 3 minutes ago

Partly Cloudy
Partly Cloudy
88.7 °F
Feels Like 98 °F
N
2.0
Wind Variable Wind from ENE
Gusts 4.0 mph

Today
High -- | Low -- °F
--% Chance of Precip.
Yesterday
High -- | Low -- °F
Precip. -- in
Pressure 30.09 in
Visibility 10.0 miles
Clouds Few 2500 ft
Heat Index 98 °F
Dew Point 74 °F
Humidity 63%
Rainfall 0.00 in
Snow Depth Not available.
6:55 AM 7:53 PM
Waning Crescent, 22% visible
METAR KHXD 271750Z 06008G16KT 030V100 10SM FEW025 32/23 A3009
Pressure 30.09 in
Visibility 10.0 miles
Clouds Few 2500 ft
Heat Index 98 °F
Dew Point 74 °F
Humidity 63%
Rainfall 0.00 in
Snow Depth Not available.
6:55 AM 7:53 PM
Waning Crescent, 22% visible
METAR KHXD 271750Z 06008G16KT 030V100 10SM FEW025 32/23 A3009

10-Day Weather Forecast

Almanac

Astronomy

Aug. 27, 2016 Rise Set
Actual Time
Civil Twilight
Nautical Twilight
Astronomical Twilight
Moon
Length of Visible Light
Length of Day
Tomorrow will be .
, % of the Moon is Illuminated

Today's Extremes

State Highs State Lows

Community

WunderPhotos

Upload Photos

1,935,399 photos uploaded!

WunderBlog® & News

Nearby

Air Quality

  Air Quality AQ Index Pollutant
Not available.

Snow Depth

Station Depth Elevation

Earthquake Activity

City Distance Mag. Time & Date
Minimum magnitude displayed is 2.5.

Coastal Water Temperatures

Place Temperature

Stations

Nearby Weather Stations

Station Location Temp. Windchill Dew Point Humidity Wind Precip. Elev Updated Type
                   

Watches & Warnings

Coastal Hazard Statement
Issued: 2:56 PM EDT Aug. 27, 2016 – National Weather Service

... High rip current risk in effect from Sunday morning through
Sunday evening...

The National Weather Service in Charleston has issued a high rip
current risk... which is in effect from Sunday morning through
Sunday evening.

* Rip currents... wind and wave conditions support the
development of very strong rip currents. These rip currents
will be life threatening to anyone who enters the surf.

Precautionary/preparedness actions...

No one should enter the surf due to life threatening rip
currents.